createdAt,value
2018-05-09T00:01:25.297Z,51.50
2018-05-09T00:03:53.517Z,51.80
2018-05-09T00:06:20.945Z,51.90
2018-05-09T00:08:48.441Z,52.00
2018-05-09T00:11:15.880Z,51.70
2018-05-09T00:13:43.378Z,52.10
2018-05-09T00:16:10.930Z,51.90
2018-05-09T00:18:38.394Z,51.80
2018-05-09T00:21:05.846Z,51.70
2018-05-09T00:23:33.317Z,52.00
2018-05-09T00:26:00.882Z,51.90
2018-05-09T00:28:28.323Z,51.60
2018-05-09T00:30:55.783Z,51.50
2018-05-09T00:33:23.270Z,51.50
2018-05-09T00:35:50.710Z,51.90
2018-05-09T00:38:18.168Z,51.60
2018-05-09T00:40:45.667Z,52.30
2018-05-09T00:43:13.116Z,52.50
2018-05-09T00:45:40.577Z,52.30
2018-05-09T00:48:08.046Z,52.80
2018-05-09T00:50:35.605Z,52.70
2018-05-09T00:53:03.078Z,52.70
2018-05-09T00:55:30.630Z,52.50
2018-05-09T00:57:58.071Z,53.60
2018-05-09T01:00:25.576Z,53.20
2018-05-09T01:02:53.038Z,53.60
2018-05-09T01:05:20.501Z,53.50
2018-05-09T01:07:47.944Z,53.60
2018-05-09T01:10:15.387Z,53.60
2018-05-09T01:12:42.877Z,52.90
2018-05-09T01:15:10.319Z,53.70
2018-05-09T01:17:38.002Z,53.50
2018-05-09T01:20:05.452Z,54.10
2018-05-09T01:22:32.921Z,54.40
2018-05-09T01:25:00.378Z,54.00
2018-05-09T01:27:27.934Z,54.30
2018-05-09T01:29:55.417Z,55.00
2018-05-09T01:32:22.857Z,54.30
2018-05-09T01:34:50.309Z,54.10
2018-05-09T01:37:17.769Z,54.50
2018-05-09T01:39:45.267Z,55.00
2018-05-09T01:42:12.713Z,54.30
2018-05-09T01:44:40.189Z,54.70
2018-05-09T01:47:07.741Z,54.30
2018-05-09T01:49:35.181Z,54.50
2018-05-09T01:52:03.411Z,55.10
2018-05-09T01:54:30.903Z,55.10
2018-05-09T01:56:58.326Z,54.40
2018-05-09T01:59:25.791Z,54.60
2018-05-09T02:01:53.238Z,54.70
2018-05-09T02:04:20.699Z,54.60
2018-05-09T02:06:49.045Z,56.10
2018-05-09T02:09:17.277Z,55.00
2018-05-09T02:11:44.731Z,55.00
2018-05-09T02:14:12.185Z,55.50
2018-05-09T02:16:39.661Z,55.40
2018-05-09T02:19:07.127Z,55.30
2018-05-09T02:21:34.586Z,56.60
2018-05-09T02:24:02.024Z,55.80
2018-05-09T02:26:29.488Z,55.70
2018-05-09T02:28:56.921Z,55.80
2018-05-09T02:31:25.121Z,55.70
2018-05-09T02:33:52.621Z,55.70
2018-05-09T02:36:20.085Z,57.00
2018-05-09T02:38:47.529Z,56.50
2018-05-09T02:41:14.990Z,56.00
2018-05-09T02:43:42.463Z,56.60
2018-05-09T02:46:10.662Z,57.10
2018-05-09T02:48:38.110Z,57.00
2018-05-09T02:51:05.602Z,56.10
2018-05-09T02:53:33.035Z,56.40
2018-05-09T02:56:00.497Z,56.70
2018-05-09T02:58:28.061Z,56.40
2018-05-09T03:00:55.530Z,56.80
2018-05-09T03:03:22.989Z,57.10
2018-05-09T03:05:50.442Z,57.00
2018-05-09T03:08:17.901Z,57.00
2018-05-09T03:10:45.383Z,57.20
2018-05-09T03:13:12.836Z,57.60
2018-05-09T03:15:40.293Z,57.40
2018-05-09T03:18:07.746Z,56.80
2018-05-09T03:20:36.142Z,57.70
2018-05-09T03:23:03.600Z,57.80
2018-05-09T03:25:31.072Z,58.00
2018-05-09T03:27:58.518Z,58.20
2018-05-09T03:30:25.959Z,58.20
2018-05-09T03:32:53.420Z,58.10
2018-05-09T03:35:20.864Z,58.40
2018-05-09T03:37:49.073Z,58.30
2018-05-09T03:40:16.569Z,58.30
2018-05-09T03:42:44.031Z,58.30
2018-05-09T03:45:11.577Z,57.60
2018-05-09T03:47:39.042Z,58.20
2018-05-09T03:50:06.492Z,58.40
2018-05-09T03:52:33.952Z,59.10
2018-05-09T03:55:01.438Z,59.30
2018-05-09T03:57:28.901Z,58.80
2018-05-09T03:59:56.345Z,58.50
2018-05-09T04:02:37.744Z,58.20
2018-05-09T04:05:17.277Z,58.20
2018-05-09T04:07:56.791Z,58.80
2018-05-09T04:10:24.259Z,58.70
2018-05-09T04:12:51.745Z,58.50
2018-05-09T04:15:19.201Z,58.80
2018-05-09T04:17:46.765Z,59.50
2018-05-09T04:20:14.206Z,59.50
2018-05-09T04:22:41.676Z,59.40
2018-05-09T04:25:09.176Z,59.60
2018-05-09T04:27:36.587Z,59.50
2018-05-09T04:30:04.031Z,59.60
2018-05-09T04:32:32.261Z,60.50
2018-05-09T04:34:59.733Z,60.50
2018-05-09T04:37:27.165Z,60.10
2018-05-09T04:39:54.613Z,61.20
2018-05-09T04:42:22.082Z,62.00
2018-05-09T04:44:49.569Z,61.10
2018-05-09T04:47:17.136Z,60.60
2018-05-09T04:49:44.647Z,60.50
2018-05-09T04:52:12.873Z,60.40
2018-05-09T04:54:40.314Z,60.40
2018-05-09T04:57:07.781Z,60.80
2018-05-09T04:59:35.226Z,61.60
2018-05-09T05:02:02.665Z,61.50
2018-05-09T05:04:30.126Z,60.70
2018-05-09T05:06:57.944Z,62.70
2018-05-09T05:09:25.351Z,61.30
2018-05-09T05:11:52.791Z,62.70
2018-05-09T05:14:20.245Z,61.80
2018-05-09T05:16:47.789Z,63.10
2018-05-09T05:19:15.246Z,62.90
2018-05-09T05:21:42.736Z,63.20
2018-05-09T05:24:10.198Z,63.80
2018-05-09T05:26:37.636Z,63.50
2018-05-09T05:29:05.101Z,63.00
2018-05-09T05:31:32.540Z,63.10
2018-05-09T05:34:00.745Z,62.30
2018-05-09T05:36:28.450Z,62.30
2018-05-09T05:38:56.053Z,62.00
2018-05-09T05:41:23.446Z,61.10
2018-05-09T05:43:50.925Z,59.90
2018-05-09T05:46:18.360Z,59.50
2018-05-09T05:48:45.825Z,60.30
2018-05-09T05:51:13.259Z,60.50
2018-05-09T05:53:41.485Z,58.90
2018-05-09T05:56:08.979Z,58.80
2018-05-09T05:58:36.389Z,58.70
2018-05-09T06:01:03.851Z,57.80
2018-05-09T06:03:31.290Z,58.10
2018-05-09T06:05:59.528Z,57.90
2018-05-09T06:08:26.964Z,57.80
2018-05-09T06:10:54.441Z,57.30
2018-05-09T06:13:21.915Z,57.60
2018-05-09T06:15:49.474Z,57.50
2018-05-09T06:18:16.925Z,57.20
2018-05-09T06:20:44.381Z,58.20
2018-05-09T06:23:11.956Z,57.80
2018-05-09T06:25:39.607Z,59.00
2018-05-09T06:28:07.053Z,59.10
2018-05-09T06:30:34.519Z,59.70
2018-05-09T06:33:02.009Z,58.20
2018-05-09T06:35:29.476Z,57.10
2018-05-09T06:37:56.932Z,55.80
2018-05-09T06:40:24.502Z,57.60
2018-05-09T06:42:51.966Z,58.10
2018-05-09T06:45:19.413Z,56.40
2018-05-09T06:47:46.899Z,55.70
2018-05-09T06:50:14.357Z,56.60
2018-05-09T06:52:41.810Z,56.30
2018-05-09T06:55:09.273Z,56.40
2018-05-09T06:57:36.729Z,56.50
2018-05-09T07:00:04.262Z,54.70
2018-05-09T07:02:31.626Z,54.40
2018-05-09T07:04:59.850Z,54.00
2018-05-09T07:07:27.321Z,53.90
2018-05-09T07:09:54.761Z,53.60
2018-05-09T07:12:22.218Z,54.00
2018-05-09T07:14:49.660Z,53.20
2018-05-09T07:17:17.113Z,52.30
2018-05-09T07:19:44.553Z,52.90
2018-05-09T07:22:12.792Z,50.40
2018-05-09T07:24:40.263Z,50.40
2018-05-09T07:27:07.725Z,49.10
2018-05-09T07:29:35.173Z,50.50
2018-05-09T07:32:02.727Z,49.80
2018-05-09T07:34:30.214Z,50.00
2018-05-09T07:36:57.653Z,50.30
2018-05-09T07:39:25.116Z,50.40
2018-05-09T07:41:52.553Z,50.40
2018-05-09T07:44:20.876Z,48.90
2018-05-09T07:46:48.345Z,48.80
2018-05-09T07:49:15.831Z,48.50
2018-05-09T07:51:43.269Z,49.30
2018-05-09T07:54:10.735Z,48.90
2018-05-09T07:56:38.295Z,49.10
2018-05-09T07:59:05.757Z,48.40
2018-05-09T08:01:33.621Z,47.60
2018-05-09T08:04:01.090Z,48.00
2018-05-09T08:06:28.552Z,47.70
2018-05-09T08:08:55.993Z,47.60
2018-05-09T08:11:23.451Z,48.40
2018-05-09T08:13:50.885Z,48.30
2018-05-09T08:16:19.121Z,47.50
2018-05-09T08:18:46.577Z,47.50
2018-05-09T08:21:14.048Z,46.50
2018-05-09T08:23:41.518Z,46.40
2018-05-09T08:26:09.051Z,45.40
2018-05-09T08:28:36.478Z,44.30
2018-05-09T08:31:04.690Z,45.80
2018-05-09T08:33:32.173Z,45.80
2018-05-09T08:35:59.638Z,44.20
2018-05-09T08:38:27.201Z,43.90
2018-05-09T08:40:54.642Z,44.90
2018-05-09T08:43:22.192Z,44.80
2018-05-09T08:45:49.592Z,44.40
2018-05-09T08:48:17.155Z,43.30
2018-05-09T08:50:44.622Z,43.20
2018-05-09T08:53:12.080Z,43.70
2018-05-09T08:55:39.528Z,44.00
2018-05-09T08:58:06.984Z,42.60
2018-05-09T09:00:34.469Z,44.30
2018-05-09T09:03:02.033Z,43.30
2018-05-09T09:05:29.596Z,44.20
2018-05-09T09:07:57.041Z,43.30
2018-05-09T09:10:24.485Z,42.70
2018-05-09T09:12:52.001Z,42.50
2018-05-09T09:15:19.541Z,43.10
2018-05-09T09:17:47.025Z,42.90
2018-05-09T09:20:14.578Z,42.10
2018-05-09T09:22:42.071Z,42.00
2018-05-09T09:25:09.545Z,42.00
2018-05-09T09:27:37.753Z,41.80
2018-05-09T09:30:05.222Z,41.80
2018-05-09T09:32:32.657Z,41.20
2018-05-09T09:35:00.992Z,41.00
2018-05-09T09:37:28.433Z,40.90
2018-05-09T09:39:55.865Z,38.70
2018-05-09T09:42:24.124Z,40.80
2018-05-09T09:44:51.590Z,40.80
2018-05-09T09:47:19.041Z,41.40
2018-05-09T09:49:46.500Z,40.50
2018-05-09T09:52:14.049Z,40.30
2018-05-09T09:54:41.505Z,41.40
2018-05-09T09:57:08.974Z,41.10
2018-05-09T09:59:36.535Z,41.30
2018-05-09T10:02:03.975Z,41.50
2018-05-09T10:04:31.409Z,41.70
2018-05-09T10:06:59.637Z,42.70
2018-05-09T10:09:27.090Z,42.60
2018-05-09T10:11:54.577Z,41.40
2018-05-09T10:14:22.020Z,41.80
2018-05-09T10:16:49.476Z,41.20
2018-05-09T10:19:16.914Z,39.00
2018-05-09T10:21:44.401Z,40.50
2018-05-09T10:24:11.882Z,41.00
2018-05-09T10:26:39.326Z,39.40
2018-05-09T10:29:06.788Z,39.30
2018-05-09T10:31:34.226Z,39.80
2018-05-09T10:34:01.673Z,40.60
2018-05-09T10:36:29.894Z,40.50
2018-05-09T10:38:57.354Z,40.50
2018-05-09T10:41:24.792Z,41.20
2018-05-09T10:43:52.258Z,41.20
2018-05-09T10:46:19.713Z,41.70
2018-05-09T10:48:47.163Z,41.70
2018-05-09T10:51:15.414Z,41.80
2018-05-09T10:53:42.968Z,41.70
2018-05-09T10:56:10.402Z,41.70
2018-05-09T10:58:37.966Z,42.30
2018-05-09T11:01:05.390Z,41.90
2018-05-09T11:03:32.861Z,43.00
2018-05-09T11:06:00.296Z,40.60
2018-05-09T11:08:27.762Z,41.80
2018-05-09T11:10:55.311Z,41.40
2018-05-09T11:13:22.777Z,41.80
2018-05-09T11:15:50.230Z,41.60
2018-05-09T11:18:17.705Z,42.10
2018-05-09T11:20:45.253Z,42.50
2018-05-09T11:23:12.691Z,41.30
2018-05-09T11:25:40.247Z,40.70
2018-05-09T11:28:07.838Z,41.70
2018-05-09T11:30:35.302Z,40.80
2018-05-09T11:33:02.765Z,41.00
2018-05-09T11:35:30.703Z,39.90
2018-05-09T11:37:58.205Z,39.60
2018-05-09T11:40:25.645Z,39.00
2018-05-09T11:42:53.111Z,38.80
2018-05-09T11:45:20.570Z,39.10
2018-05-09T11:47:48.033Z,39.00
2018-05-09T11:50:15.485Z,38.80
2018-05-09T11:52:42.941Z,38.30
2018-05-09T11:55:11.154Z,39.30
2018-05-09T11:57:38.589Z,39.30
2018-05-09T12:00:06.053Z,38.90
2018-05-09T12:02:33.547Z,39.00
2018-05-09T12:05:01.723Z,37.40
2018-05-09T12:07:29.157Z,37.40
2018-05-09T12:09:56.617Z,38.40
2018-05-09T12:12:24.162Z,39.00
2018-05-09T12:14:51.581Z,38.20
2018-05-09T12:17:19.717Z,39.20
2018-05-09T12:19:47.318Z,37.00
2018-05-09T12:22:14.781Z,37.20
2018-05-09T12:24:42.324Z,38.50
2018-05-09T12:27:09.679Z,38.20
2018-05-09T12:29:37.173Z,38.20
2018-05-09T12:32:04.622Z,38.00
2018-05-09T12:34:32.061Z,38.00
2018-05-09T12:36:59.531Z,37.80
2018-05-09T12:39:26.973Z,38.40
2018-05-09T12:41:55.297Z,37.50
2018-05-09T12:44:22.796Z,37.40
2018-05-09T12:46:50.254Z,38.60
2018-05-09T12:49:18.463Z,39.20
2018-05-09T12:51:46.789Z,38.70
2018-05-09T12:54:14.226Z,38.70
2018-05-09T12:56:41.712Z,39.50
2018-05-09T12:59:09.334Z,39.40
2018-05-09T13:01:36.720Z,40.40
2018-05-09T13:04:04.181Z,40.20
2018-05-09T13:06:31.667Z,40.80
2018-05-09T13:08:59.134Z,40.90
2018-05-09T13:11:26.585Z,41.40
2018-05-09T13:13:54.153Z,41.70
2018-05-09T13:16:21.593Z,41.30
2018-05-09T13:18:49.485Z,40.40
2018-05-09T13:21:17.049Z,40.40
2018-05-09T13:23:44.514Z,40.40
2018-05-09T13:26:11.978Z,41.00
2018-05-09T13:28:39.421Z,42.40
2018-05-09T13:31:06.886Z,42.00
2018-05-09T13:33:34.321Z,41.00
2018-05-09T13:36:01.785Z,40.80
2018-05-09T13:38:30.011Z,39.20
2018-05-09T13:40:57.473Z,39.20
2018-05-09T13:43:25.037Z,38.40
2018-05-09T13:45:52.485Z,39.10
2018-05-09T13:48:19.966Z,39.00
2018-05-09T13:50:47.521Z,38.80
2018-05-09T13:53:14.983Z,37.70
2018-05-09T13:55:42.423Z,39.00
2018-05-09T13:58:10.016Z,38.20
2018-05-09T14:00:37.447Z,37.70
2018-05-09T14:03:04.910Z,38.40
2018-05-09T14:05:32.413Z,38.40
2018-05-09T14:07:59.867Z,39.00
2018-05-09T14:10:27.336Z,37.60
2018-05-09T14:12:54.892Z,37.50
2018-05-09T14:15:22.350Z,36.60
2018-05-09T14:17:49.832Z,37.70
2018-05-09T14:20:17.270Z,37.20
2018-05-09T14:22:44.739Z,37.80
2018-05-09T14:25:12.260Z,37.90
2018-05-09T14:27:39.654Z,38.50
2018-05-09T14:30:07.122Z,38.00
2018-05-09T14:32:34.889Z,37.80
2018-05-09T14:35:02.368Z,38.00
2018-05-09T14:37:29.841Z,38.00
2018-05-09T14:39:57.391Z,37.20
2018-05-09T14:42:24.839Z,37.30
2018-05-09T14:44:52.416Z,38.00
2018-05-09T14:47:19.881Z,36.90
2018-05-09T14:49:47.437Z,37.60
2018-05-09T14:52:14.912Z,37.40
2018-05-09T14:54:42.465Z,35.20
2018-05-09T14:57:09.933Z,36.50
2018-05-09T14:59:37.382Z,35.30
2018-05-09T15:02:04.869Z,36.00
2018-05-09T15:04:32.417Z,35.70
2018-05-09T15:06:59.859Z,35.40
2018-05-09T15:09:27.329Z,34.50
2018-05-09T15:11:54.769Z,35.30
2018-05-09T15:14:22.209Z,35.40
2018-05-09T15:16:50.425Z,35.00
2018-05-09T15:19:17.861Z,34.90
2018-05-09T15:21:46.101Z,35.30
2018-05-09T15:24:13.653Z,35.40
2018-05-09T15:26:41.228Z,34.80
2018-05-09T15:29:08.693Z,35.30
2018-05-09T15:31:36.154Z,34.80
2018-05-09T15:34:03.595Z,35.60
2018-05-09T15:36:31.063Z,35.00
2018-05-09T15:38:58.509Z,34.50
2018-05-09T15:41:25.959Z,35.20
2018-05-09T15:43:53.457Z,35.50
2018-05-09T15:46:20.914Z,35.80
2018-05-09T15:48:48.389Z,34.60
2018-05-09T15:51:15.845Z,35.10
2018-05-09T15:53:43.397Z,35.60
2018-05-09T15:56:10.847Z,37.40
2018-05-09T15:58:38.330Z,37.70
2018-05-09T16:01:05.813Z,39.20
2018-05-09T16:03:33.277Z,38.30
2018-05-09T16:06:00.738Z,38.40
2018-05-09T16:08:28.266Z,39.60
2018-05-09T16:10:55.741Z,39.00
2018-05-09T16:13:23.225Z,38.30
2018-05-09T16:15:50.686Z,38.60
2018-05-09T16:18:18.147Z,38.80
2018-05-09T16:20:45.617Z,38.60
2018-05-09T16:23:13.073Z,38.50
2018-05-09T16:25:40.522Z,38.30
2018-05-09T16:28:07.973Z,38.30
2018-05-09T16:30:35.438Z,38.50
2018-05-09T16:33:02.901Z,38.30
2018-05-09T16:35:30.381Z,38.70
2018-05-09T16:37:57.825Z,38.20
2018-05-09T16:40:25.583Z,38.50
2018-05-09T16:42:53.058Z,38.50
2018-05-09T16:45:20.561Z,38.00
2018-05-09T16:47:48.015Z,38.20
2018-05-09T16:50:15.480Z,38.20
2018-05-09T16:52:42.929Z,38.20
2018-05-09T16:55:10.397Z,38.20
2018-05-09T16:57:37.959Z,38.60
2018-05-09T17:00:05.411Z,39.40
2018-05-09T17:02:32.972Z,39.50
2018-05-09T17:05:00.540Z,39.50
2018-05-09T17:07:27.998Z,39.70
2018-05-09T17:09:55.458Z,40.30
2018-05-09T17:12:22.913Z,40.40
2018-05-09T17:14:50.385Z,40.40
2018-05-09T17:17:17.999Z,40.30
2018-05-09T17:19:46.209Z,40.70
2018-05-09T17:22:27.508Z,40.60
2018-05-09T17:24:55.075Z,40.60
2018-05-09T17:27:22.515Z,40.70
2018-05-09T17:29:49.950Z,41.00
2018-05-09T17:32:18.197Z,42.00
2018-05-09T17:34:45.632Z,42.00
2018-05-09T17:37:13.093Z,42.60
2018-05-09T17:39:40.560Z,42.30
2018-05-09T17:42:08.129Z,42.70
2018-05-09T17:44:35.589Z,43.40
2018-05-09T17:47:03.053Z,43.80
2018-05-09T17:49:30.503Z,44.00
2018-05-09T17:51:57.961Z,44.10
2018-05-09T17:54:25.429Z,44.20
2018-05-09T17:56:52.872Z,44.00
2018-05-09T17:59:20.301Z,44.10
2018-05-09T18:01:47.756Z,44.40
2018-05-09T18:04:15.242Z,45.00
2018-05-09T18:06:43.469Z,46.10
2018-05-09T18:09:10.939Z,46.10
2018-05-09T18:11:38.397Z,46.50
2018-05-09T18:14:05.962Z,46.50
2018-05-09T18:16:33.420Z,46.70
2018-05-09T18:19:00.917Z,47.20
2018-05-09T18:21:29.158Z,47.70
2018-05-09T18:23:58.713Z,47.70
2018-05-09T18:26:26.189Z,48.50
2018-05-09T18:28:54.521Z,49.30
2018-05-09T18:31:22.033Z,49.30
2018-05-09T18:33:50.234Z,50.00
2018-05-09T18:36:17.733Z,49.90
2018-05-09T18:38:45.224Z,49.90
2018-05-09T18:41:12.681Z,49.80
2018-05-09T18:43:40.299Z,50.00
2018-05-09T18:46:07.716Z,49.80
2018-05-09T18:48:35.175Z,50.70
2018-05-09T18:51:02.637Z,50.60
2018-05-09T18:53:30.097Z,51.00
2018-05-09T18:55:57.737Z,50.90
2018-05-09T18:58:25.383Z,51.00
2018-05-09T19:00:52.857Z,51.50
2018-05-09T19:03:20.369Z,51.60
2018-05-09T19:05:48.622Z,50.60
2018-05-09T19:08:16.075Z,50.60
2018-05-09T19:10:43.537Z,50.70
2018-05-09T19:13:10.997Z,51.10
2018-05-09T19:15:38.435Z,51.20
2018-05-09T19:18:05.893Z,51.10
2018-05-09T19:20:39.726Z,51.30
2018-05-09T19:23:07.358Z,51.60
2018-05-09T19:25:35.016Z,51.90
2018-05-09T19:28:02.493Z,51.90
2018-05-09T19:30:30.783Z,51.80
2018-05-09T19:32:58.351Z,52.10
2018-05-09T19:35:25.912Z,52.30
2018-05-09T19:37:53.410Z,52.80
2018-05-09T19:40:20.874Z,53.10
2018-05-09T19:42:48.334Z,53.70
2018-05-09T19:45:15.815Z,53.90
2018-05-09T19:47:43.411Z,54.10
2018-05-09T19:50:10.765Z,54.60
2018-05-09T19:52:39.048Z,55.10
2018-05-09T19:55:07.395Z,55.10
2018-05-09T19:57:34.813Z,55.10
2018-05-09T20:00:02.289Z,55.10
2018-05-09T20:02:29.863Z,55.20
2018-05-09T20:04:57.426Z,55.10
2018-05-09T20:07:24.866Z,55.30
2018-05-09T20:09:52.341Z,55.20
2018-05-09T20:12:19.793Z,55.00
2018-05-09T20:14:47.286Z,55.20
2018-05-09T20:17:14.842Z,55.40
2018-05-09T20:19:42.381Z,55.20
2018-05-09T20:22:09.835Z,55.80
2018-05-09T20:24:37.294Z,55.90
2018-05-09T20:27:04.736Z,55.70
2018-05-09T20:29:32.964Z,56.10
2018-05-09T20:32:12.463Z,55.80
2018-05-09T20:34:40.758Z,56.30
2018-05-09T20:37:08.197Z,56.30
2018-05-09T20:39:36.429Z,56.70
2018-05-09T20:42:03.907Z,56.70
2018-05-09T20:44:31.404Z,56.50
2018-05-09T20:46:59.707Z,57.10
2018-05-09T20:49:27.178Z,57.10
2018-05-09T20:51:54.665Z,57.30
2018-05-09T20:54:22.337Z,56.80
2018-05-09T20:56:49.855Z,57.20
2018-05-09T20:59:18.102Z,57.10
2018-05-09T21:01:47.284Z,57.10
2018-05-09T21:04:14.754Z,56.90
2018-05-09T21:06:42.368Z,57.00
2018-05-09T21:09:10.592Z,56.90
2018-05-09T21:11:38.033Z,56.80
2018-05-09T21:14:05.520Z,56.70
2018-05-09T21:16:33.677Z,57.40
2018-05-09T21:19:01.237Z,57.00
2018-05-09T21:21:28.689Z,56.10
2018-05-09T21:23:56.159Z,55.70
2018-05-09T21:26:23.597Z,55.80
2018-05-09T21:28:51.826Z,55.60
2018-05-09T21:31:19.289Z,55.60
2018-05-09T21:33:46.762Z,55.70
2018-05-09T21:36:14.218Z,56.50
2018-05-09T21:38:41.680Z,55.80
2018-05-09T21:41:09.127Z,55.80
2018-05-09T21:43:36.583Z,56.70
2018-05-09T21:46:04.053Z,55.70
2018-05-09T21:48:31.517Z,56.10
2018-05-09T21:50:58.974Z,56.30
2018-05-09T21:53:26.462Z,55.60
2018-05-09T21:55:53.932Z,56.20
2018-05-09T21:58:21.369Z,56.10
2018-05-09T22:00:48.838Z,56.50
2018-05-09T22:03:16.280Z,56.50
2018-05-09T22:05:43.739Z,57.00
2018-05-09T22:08:11.180Z,56.50
2018-05-09T22:10:38.642Z,56.80
2018-05-09T22:13:06.845Z,56.50
2018-05-09T22:15:34.306Z,56.40
2018-05-09T22:18:02.179Z,56.50
2018-05-09T22:20:29.661Z,56.00
2018-05-09T22:22:57.105Z,56.30
2018-05-09T22:25:24.689Z,56.40
2018-05-09T22:27:52.165Z,56.70
2018-05-09T22:30:19.606Z,56.50
2018-05-09T22:32:47.057Z,56.30
2018-05-09T22:35:14.502Z,55.70
2018-05-09T22:37:41.971Z,56.10
2018-05-09T22:40:09.437Z,55.40
2018-05-09T22:42:37.350Z,55.30
2018-05-09T22:45:04.793Z,55.60
2018-05-09T22:47:32.262Z,55.80
2018-05-09T22:49:59.718Z,55.70
2018-05-09T22:52:27.180Z,56.50
2018-05-09T22:54:54.731Z,56.70
2018-05-09T22:57:22.105Z,56.60
2018-05-09T22:59:49.551Z,56.90
2018-05-09T23:02:17.017Z,56.40
2018-05-09T23:04:44.501Z,56.90
2018-05-09T23:07:12.074Z,57.40
2018-05-09T23:09:39.515Z,57.00
2018-05-09T23:12:06.978Z,58.50
2018-05-09T23:14:34.441Z,57.50
2018-05-09T23:17:01.931Z,57.60
2018-05-09T23:19:29.370Z,57.90
2018-05-09T23:21:56.841Z,57.90
2018-05-09T23:24:24.308Z,58.10
2018-05-09T23:26:51.743Z,57.70
2018-05-09T23:29:19.201Z,57.30
2018-05-09T23:31:46.660Z,58.40
2018-05-09T23:34:14.098Z,58.10
2018-05-09T23:36:42.339Z,58.00
2018-05-09T23:39:09.768Z,57.90
2018-05-09T23:41:37.230Z,58.00
2018-05-09T23:44:04.678Z,57.40
2018-05-09T23:46:32.149Z,57.60
2018-05-09T23:48:59.592Z,57.40
2018-05-09T23:51:27.830Z,57.70
2018-05-09T23:53:55.382Z,57.70
2018-05-09T23:56:22.951Z,57.60
2018-05-09T23:58:50.410Z,57.30
